sensor_id;sensor_type;location;lat;lon;timestamp;pressure;altitude;pressure_sealevel;temperature;humidity
7802;BME280;3945;48.952;9.506;2022-10-17T00:00:34;98502.81;;;14.55;94.51
7802;BME280;3945;48.952;9.506;2022-10-17T00:03:01;98507.59;;;14.53;94.35
7802;BME280;3945;48.952;9.506;2022-10-17T00:05:29;98502.75;;;14.50;94.46
7802;BME280;3945;48.952;9.506;2022-10-17T00:07:55;98503.25;;;14.47;94.54
7802;BME280;3945;48.952;9.506;2022-10-17T00:10:21;98505.13;;;14.46;94.36
7802;BME280;3945;48.952;9.506;2022-10-17T00:12:49;98509.34;;;14.42;94.40
7802;BME280;3945;48.952;9.506;2022-10-17T00:15:16;98507.19;;;14.39;94.58
7802;BME280;3945;48.952;9.506;2022-10-17T00:17:43;98510.03;;;14.32;94.84
7802;BME280;3945;48.952;9.506;2022-10-17T00:20:10;98503.31;;;14.30;94.79
7802;BME280;3945;48.952;9.506;2022-10-17T00:22:37;98509.13;;;14.27;94.99
7802;BME280;3945;48.952;9.506;2022-10-17T00:25:04;98512.34;;;14.24;95.18
7802;BME280;3945;48.952;9.506;2022-10-17T00:27:33;98508.78;;;14.18;95.38
7802;BME280;3945;48.952;9.506;2022-10-17T00:29:59;98505.56;;;14.16;95.27
7802;BME280;3945;48.952;9.506;2022-10-17T00:32:25;98504.13;;;14.08;95.52
7802;BME280;3945;48.952;9.506;2022-10-17T00:34:52;98518.56;;;14.07;95.83
7802;BME280;3945;48.952;9.506;2022-10-17T00:37:18;98512.16;;;14.08;95.80
7802;BME280;3945;48.952;9.506;2022-10-17T00:39:46;98520.97;;;14.09;96.20
7802;BME280;3945;48.952;9.506;2022-10-17T00:42:12;98525.53;;;14.08;96.33
7802;BME280;3945;48.952;9.506;2022-10-17T00:47:32;98516.88;;;14.01;97.36
7802;BME280;3945;48.952;9.506;2022-10-17T00:50:00;98521.75;;;14.04;97.41
7802;BME280;3945;48.952;9.506;2022-10-17T00:52:27;98517.44;;;14.03;97.70
7802;BME280;3945;48.952;9.506;2022-10-17T00:54:57;98517.69;;;14.02;97.50
7802;BME280;3945;48.952;9.506;2022-10-17T00:57:23;98515.50;;;13.99;97.80
7802;BME280;3945;48.952;9.506;2022-10-17T00:59:51;98513.09;;;13.97;97.75
7802;BME280;3945;48.952;9.506;2022-10-17T01:02:20;98515.75;;;13.97;97.90
7802;BME280;3945;48.952;9.506;2022-10-17T01:04:47;98516.47;;;13.93;97.84
7802;BME280;3945;48.952;9.506;2022-10-17T01:07:15;98513.00;;;13.92;97.81
7802;BME280;3945;48.952;9.506;2022-10-17T01:09:41;98518.69;;;13.96;97.94
7802;BME280;3945;48.952;9.506;2022-10-17T01:12:11;98507.72;;;13.97;97.71
7802;BME280;3945;48.952;9.506;2022-10-17T01:14:42;98515.75;;;13.97;97.52
7802;BME280;3945;48.952;9.506;2022-10-17T01:17:15;98505.84;;;13.98;97.45
7802;BME280;3945;48.952;9.506;2022-10-17T01:19:55;98512.81;;;13.99;97.16
7802;BME280;3945;48.952;9.506;2022-10-17T01:22:29;98520.13;;;14.03;97.06
7802;BME280;3945;48.952;9.506;2022-10-17T01:25:03;98516.63;;;14.03;96.68
7802;BME280;3945;48.952;9.506;2022-10-17T01:30:28;98515.75;;;13.97;96.66
7802;BME280;3945;48.952;9.506;2022-10-17T01:33:01;98517.06;;;13.95;96.71
7802;BME280;3945;48.952;9.506;2022-10-17T01:35:31;98518.34;;;13.92;96.42
7802;BME280;3945;48.952;9.506;2022-10-17T01:38:02;98517.00;;;13.90;96.37
7802;BME280;3945;48.952;9.506;2022-10-17T01:40:33;98514.81;;;13.87;96.40
7802;BME280;3945;48.952;9.506;2022-10-17T01:43:01;98516.91;;;13.85;96.20
7802;BME280;3945;48.952;9.506;2022-10-17T01:45:30;98512.31;;;13.80;96.33
7802;BME280;3945;48.952;9.506;2022-10-17T01:47:58;98517.31;;;13.77;96.21
7802;BME280;3945;48.952;9.506;2022-10-17T01:50:30;98516.22;;;13.73;95.96
7802;BME280;3945;48.952;9.506;2022-10-17T01:52:58;98509.47;;;13.70;96.03
7802;BME280;3945;48.952;9.506;2022-10-17T01:55:27;98509.66;;;13.63;95.87
7802;BME280;3945;48.952;9.506;2022-10-17T01:57:56;98507.72;;;13.59;95.71
7802;BME280;3945;48.952;9.506;2022-10-17T02:00:26;98511.94;;;13.55;95.69
7802;BME280;3945;48.952;9.506;2022-10-17T02:02:53;98514.88;;;13.53;96.09
7802;BME280;3945;48.952;9.506;2022-10-17T02:05:23;98513.25;;;13.52;96.12
7802;BME280;3945;48.952;9.506;2022-10-17T02:07:52;98518.03;;;13.50;96.42
7802;BME280;3945;48.952;9.506;2022-10-17T02:10:22;98516.97;;;13.51;96.05
7802;BME280;3945;48.952;9.506;2022-10-17T02:12:51;98515.59;;;13.49;95.75
7802;BME280;3945;48.952;9.506;2022-10-17T02:18:10;98509.44;;;13.48;96.13
7802;BME280;3945;48.952;9.506;2022-10-17T02:20:43;98515.03;;;13.47;95.60
7802;BME280;3945;48.952;9.506;2022-10-17T02:23:17;98508.88;;;13.46;95.55
7802;BME280;3945;48.952;9.506;2022-10-17T02:25:47;98505.94;;;13.48;95.84
7802;BME280;3945;48.952;9.506;2022-10-17T02:28:18;98508.63;;;13.48;95.67
7802;BME280;3945;48.952;9.506;2022-10-17T02:30:46;98519.59;;;13.46;95.21
7802;BME280;3945;48.952;9.506;2022-10-17T02:33:15;98513.66;;;13.44;95.26
7802;BME280;3945;48.952;9.506;2022-10-17T02:35:45;98515.19;;;13.40;95.12
7802;BME280;3945;48.952;9.506;2022-10-17T02:38:12;98516.50;;;13.38;94.99
7802;BME280;3945;48.952;9.506;2022-10-17T02:40:40;98519.66;;;13.35;94.94
7802;BME280;3945;48.952;9.506;2022-10-17T02:43:07;98519.81;;;13.28;95.12
7802;BME280;3945;48.952;9.506;2022-10-17T02:45:34;98512.19;;;13.20;94.94
7802;BME280;3945;48.952;9.506;2022-10-17T02:48:02;98519.56;;;13.13;94.89
7802;BME280;3945;48.952;9.506;2022-10-17T02:50:32;98523.53;;;13.10;94.78
7802;BME280;3945;48.952;9.506;2022-10-17T02:53:02;98528.06;;;13.10;94.63
7802;BME280;3945;48.952;9.506;2022-10-17T02:55:30;98523.09;;;13.02;95.10
7802;BME280;3945;48.952;9.506;2022-10-17T02:57:59;98522.22;;;12.96;95.11
7802;BME280;3945;48.952;9.506;2022-10-17T03:00:29;98521.13;;;12.97;94.72
7802;BME280;3945;48.952;9.506;2022-10-17T03:02:56;98524.06;;;12.96;95.22
7802;BME280;3945;48.952;9.506;2022-10-17T03:05:23;98522.44;;;12.95;95.23
7802;BME280;3945;48.952;9.506;2022-10-17T03:07:50;98522.22;;;12.96;95.10
7802;BME280;3945;48.952;9.506;2022-10-17T03:10:17;98525.94;;;12.95;94.64
7802;BME280;3945;48.952;9.506;2022-10-17T03:12:43;98535.00;;;12.94;94.80
7802;BME280;3945;48.952;9.506;2022-10-17T03:15:12;98522.69;;;12.93;94.83
7802;BME280;3945;48.952;9.506;2022-10-17T03:17:38;98529.06;;;12.92;94.97
7802;BME280;3945;48.952;9.506;2022-10-17T03:20:05;98530.13;;;12.91;94.89
7802;BME280;3945;48.952;9.506;2022-10-17T03:22:31;98532.25;;;12.89;95.08
7802;BME280;3945;48.952;9.506;2022-10-17T03:24:58;98535.97;;;12.88;94.89
7802;BME280;3945;48.952;9.506;2022-10-17T03:27:24;98536.19;;;12.86;95.17
7802;BME280;3945;48.952;9.506;2022-10-17T03:29:51;98541.47;;;12.81;95.35
7802;BME280;3945;48.952;9.506;2022-10-17T03:32:18;98537.63;;;12.77;95.19
7802;BME280;3945;48.952;9.506;2022-10-17T03:34:45;98538.34;;;12.73;96.79
7802;BME280;3945;48.952;9.506;2022-10-17T03:37:11;98539.41;;;12.72;96.59
7802;BME280;3945;48.952;9.506;2022-10-17T03:39:37;98536.72;;;12.72;96.50
7802;BME280;3945;48.952;9.506;2022-10-17T03:42:06;98535.09;;;12.71;97.13
7802;BME280;3945;48.952;9.506;2022-10-17T03:44:32;98535.91;;;12.71;96.82
7802;BME280;3945;48.952;9.506;2022-10-17T03:46:58;98537.31;;;12.74;97.18
7802;BME280;3945;48.952;9.506;2022-10-17T03:49:26;98534.88;;;12.72;97.20
7802;BME280;3945;48.952;9.506;2022-10-17T03:51:53;98546.38;;;12.73;96.89
7802;BME280;3945;48.952;9.506;2022-10-17T03:54:19;98543.94;;;12.71;97.17
7802;BME280;3945;48.952;9.506;2022-10-17T03:56:45;98551.13;;;12.71;96.92
7802;BME280;3945;48.952;9.506;2022-10-17T03:59:12;98554.03;;;12.69;96.72
7802;BME280;3945;48.952;9.506;2022-10-17T04:01:39;98546.50;;;12.66;96.52
7802;BME280;3945;48.952;9.506;2022-10-17T04:04:05;98548.03;;;12.62;95.72
7802;BME280;3945;48.952;9.506;2022-10-17T04:06:33;98549.22;;;12.55;95.66
7802;BME280;3945;48.952;9.506;2022-10-17T04:08:59;98555.03;;;12.51;95.46
7802;BME280;3945;48.952;9.506;2022-10-17T04:11:26;98555.50;;;12.48;95.21
7802;BME280;3945;48.952;9.506;2022-10-17T04:13:52;98558.09;;;12.43;95.08
7802;BME280;3945;48.952;9.506;2022-10-17T04:16:19;98555.31;;;12.38;95.16
7802;BME280;3945;48.952;9.506;2022-10-17T04:18:46;98556.59;;;12.36;94.79
7802;BME280;3945;48.952;9.506;2022-10-17T04:21:12;98557.63;;;12.35;94.98
7802;BME280;3945;48.952;9.506;2022-10-17T04:23:40;98549.53;;;12.30;95.16
7802;BME280;3945;48.952;9.506;2022-10-17T04:26:06;98557.31;;;12.31;95.83
7802;BME280;3945;48.952;9.506;2022-10-17T04:28:33;98559.41;;;12.29;95.90
7802;BME280;3945;48.952;9.506;2022-10-17T04:31:00;98558.81;;;12.27;96.14
7802;BME280;3945;48.952;9.506;2022-10-17T04:33:26;98559.41;;;12.29;95.84
7802;BME280;3945;48.952;9.506;2022-10-17T04:35:56;98559.97;;;12.31;95.76
7802;BME280;3945;48.952;9.506;2022-10-17T04:38:23;98563.69;;;12.30;95.60
7802;BME280;3945;48.952;9.506;2022-10-17T04:40:51;98570.41;;;12.33;96.04
7802;BME280;3945;48.952;9.506;2022-10-17T04:43:17;98577.59;;;12.32;95.83
7802;BME280;3945;48.952;9.506;2022-10-17T04:45:43;98575.41;;;12.29;95.63
7802;BME280;3945;48.952;9.506;2022-10-17T04:48:10;98575.41;;;12.29;96.09
7802;BME280;3945;48.952;9.506;2022-10-17T04:50:36;98585.03;;;12.30;95.34
7802;BME280;3945;48.952;9.506;2022-10-17T04:53:03;98583.41;;;12.29;95.84
7802;BME280;3945;48.952;9.506;2022-10-17T04:55:29;98579.34;;;12.27;95.54
7802;BME280;3945;48.952;9.506;2022-10-17T04:57:57;98572.88;;;12.23;95.74
7802;BME280;3945;48.952;9.506;2022-10-17T05:00:23;98578.09;;;12.18;95.99
7802;BME280;3945;48.952;9.506;2022-10-17T05:02:49;98577.75;;;12.14;96.32
7802;BME280;3945;48.952;9.506;2022-10-17T05:05:16;98580.41;;;12.14;96.42
7802;BME280;3945;48.952;9.506;2022-10-17T05:07:42;98580.41;;;12.14;96.19
7802;BME280;3945;48.952;9.506;2022-10-17T05:10:09;98576.72;;;12.15;96.51
7802;BME280;3945;48.952;9.506;2022-10-17T05:12:35;98578.09;;;12.18;96.44
7802;BME280;3945;48.952;9.506;2022-10-17T05:15:03;98588.53;;;12.19;96.90
7802;BME280;3945;48.952;9.506;2022-10-17T05:17:29;98593.88;;;12.19;96.09
7802;BME280;3945;48.952;9.506;2022-10-17T05:19:56;98593.75;;;12.14;96.69
7802;BME280;3945;48.952;9.506;2022-10-17T05:22:22;98599.09;;;12.14;96.11
7802;BME280;3945;48.952;9.506;2022-10-17T05:24:48;98591.81;;;12.09;96.15
7802;BME280;3945;48.952;9.506;2022-10-17T05:27:15;98590.41;;;12.07;96.40
7802;BME280;3945;48.952;9.506;2022-10-17T05:29:41;98595.88;;;12.00;95.94
7802;BME280;3945;48.952;9.506;2022-10-17T05:32:09;98594.69;;;11.96;96.27
7802;BME280;3945;48.952;9.506;2022-10-17T05:34:35;98594.13;;;11.94;96.30
7802;BME280;3945;48.952;9.506;2022-10-17T05:37:01;98598.16;;;11.97;96.45
7802;BME280;3945;48.952;9.506;2022-10-17T05:39:28;98600.97;;;12.02;96.73
7802;BME280;3945;48.952;9.506;2022-10-17T05:41:54;98598.88;;;12.04;96.85
7802;BME280;3945;48.952;9.506;2022-10-17T05:44:20;98604.78;;;12.06;96.45
7802;BME280;3945;48.952;9.506;2022-10-17T05:46:47;98603.53;;;12.08;96.98
7802;BME280;3945;48.952;9.506;2022-10-17T05:49:15;98606.63;;;12.05;96.60
7802;BME280;3945;48.952;9.506;2022-10-17T05:51:42;98608.50;;;12.05;96.44
7802;BME280;3945;48.952;9.506;2022-10-17T05:54:08;98619.97;;;12.05;96.48
7802;BME280;3945;48.952;9.506;2022-10-17T05:56:35;98615.94;;;12.03;96.51
7802;BME280;3945;48.952;9.506;2022-10-17T05:59:01;98615.13;;;12.02;96.38
7802;BME280;3945;48.952;9.506;2022-10-17T06:01:27;98618.25;;;11.99;96.62
7802;BME280;3945;48.952;9.506;2022-10-17T06:03:54;98617.66;;;11.97;97.13
7802;BME280;3945;48.952;9.506;2022-10-17T06:06:22;98623.81;;;11.98;97.24
7802;BME280;3945;48.952;9.506;2022-10-17T06:08:48;98628.22;;;12.04;97.69
7802;BME280;3945;48.952;9.506;2022-10-17T06:11:14;98625.91;;;12.07;98.02
7802;BME280;3945;48.952;9.506;2022-10-17T06:13:41;98631.56;;;12.11;98.04
7802;BME280;3945;48.952;9.506;2022-10-17T06:16:07;98635.41;;;12.15;97.66
7802;BME280;3945;48.952;9.506;2022-10-17T06:18:34;98628.78;;;12.18;97.21
7802;BME280;3945;48.952;9.506;2022-10-17T06:21:01;98639.44;;;12.18;97.24
7802;BME280;3945;48.952;9.506;2022-10-17T06:23:29;98633.34;;;12.17;96.32
7802;BME280;3945;48.952;9.506;2022-10-17T06:25:57;98624.50;;;12.17;96.17
7802;BME280;3945;48.952;9.506;2022-10-17T06:28:23;98624.16;;;12.13;96.76
7802;BME280;3945;48.952;9.506;2022-10-17T06:30:49;98643.16;;;12.05;96.13
7802;BME280;3945;48.952;9.506;2022-10-17T06:33:16;98640.50;;;11.93;95.50
7802;BME280;3945;48.952;9.506;2022-10-17T06:35:42;98647.00;;;11.86;96.04
7802;BME280;3945;48.952;9.506;2022-10-17T06:38:09;98652.44;;;11.79;95.51
7802;BME280;3945;48.952;9.506;2022-10-17T06:40:36;98654.16;;;11.73;96.22
7802;BME280;3945;48.952;9.506;2022-10-17T06:43:03;98652.75;;;11.71;96.51
7802;BME280;3945;48.952;9.506;2022-10-17T06:45:29;98665.03;;;11.72;97.45
7802;BME280;3945;48.952;9.506;2022-10-17T06:47:55;98659.50;;;11.73;97.75
7802;BME280;3945;48.952;9.506;2022-10-17T06:50:22;98667.28;;;11.75;98.69
7802;BME280;3945;48.952;9.506;2022-10-17T06:52:49;98664.38;;;11.77;99.10
7802;BME280;3945;48.952;9.506;2022-10-17T06:55:16;98668.22;;;11.81;99.76
7802;BME280;3945;48.952;9.506;2022-10-17T06:57:43;98677.16;;;11.86;100.00
7802;BME280;3945;48.952;9.506;2022-10-17T07:00:10;98670.53;;;11.89;100.00
7802;BME280;3945;48.952;9.506;2022-10-17T07:02:37;98670.44;;;11.95;100.00
7802;BME280;3945;48.952;9.506;2022-10-17T07:05:03;98674.25;;;11.99;100.00
7802;BME280;3945;48.952;9.506;2022-10-17T07:07:30;98668.00;;;12.05;100.00
7802;BME280;3945;48.952;9.506;2022-10-17T07:09:57;98673.81;;;12.14;100.00
7802;BME280;3945;48.952;9.506;2022-10-17T07:12:23;98675.41;;;12.27;100.00
7802;BME280;3945;48.952;9.506;2022-10-17T07:14:51;98672.50;;;12.40;100.00
7802;BME280;3945;48.952;9.506;2022-10-17T07:17:17;98675.19;;;12.51;100.00
7802;BME280;3945;48.952;9.506;2022-10-17T07:19:44;98667.22;;;12.68;100.00
7802;BME280;3945;48.952;9.506;2022-10-17T07:22:10;98665.69;;;12.84;100.00
7802;BME280;3945;48.952;9.506;2022-10-17T07:24:37;98676.75;;;13.04;100.00
7802;BME280;3945;48.952;9.506;2022-10-17T07:27:03;98672.09;;;13.23;100.00
7802;BME280;3945;48.952;9.506;2022-10-17T07:29:30;98673.19;;;13.39;100.00
7802;BME280;3945;48.952;9.506;2022-10-17T07:31:57;98674.16;;;13.49;100.00
7802;BME280;3945;48.952;9.506;2022-10-17T07:34:24;98684.31;;;13.64;100.00
7802;BME280;3945;48.952;9.506;2022-10-17T07:36:51;98686.94;;;13.76;100.00
7802;BME280;3945;48.952;9.506;2022-10-17T07:39:18;98680.22;;;13.90;100.00
7802;BME280;3945;48.952;9.506;2022-10-17T07:41:44;98677.19;;;14.03;100.00
7802;BME280;3945;48.952;9.506;2022-10-17T07:44:11;98669.31;;;14.13;100.00
7802;BME280;3945;48.952;9.506;2022-10-17T07:46:39;98664.41;;;14.27;100.00
7802;BME280;3945;48.952;9.506;2022-10-17T07:49:07;98660.13;;;14.42;100.00
7802;BME280;3945;48.952;9.506;2022-10-17T07:51:33;98665.44;;;14.59;100.00
7802;BME280;3945;48.952;9.506;2022-10-17T07:53:59;98665.88;;;14.73;100.00
7802;BME280;3945;48.952;9.506;2022-10-17T07:56:26;98672.50;;;14.87;100.00
7802;BME280;3945;48.952;9.506;2022-10-17T07:58:53;98680.16;;;15.00;100.00
7802;BME280;3945;48.952;9.506;2022-10-17T08:01:20;98686.50;;;15.16;100.00
7802;BME280;3945;48.952;9.506;2022-10-17T08:03:46;98677.50;;;15.27;100.00
7802;BME280;3945;48.952;9.506;2022-10-17T08:06:14;98679.28;;;15.43;100.00
7802;BME280;3945;48.952;9.506;2022-10-17T08:08:41;98675.47;;;15.61;100.00
7802;BME280;3945;48.952;9.506;2022-10-17T08:11:08;98688.19;;;15.76;100.00
7802;BME280;3945;48.952;9.506;2022-10-17T08:13:35;98684.03;;;15.90;100.00
7802;BME280;3945;48.952;9.506;2022-10-17T08:16:02;98690.84;;;16.02;100.00
7802;BME280;3945;48.952;9.506;2022-10-17T08:18:29;98694.66;;;16.12;100.00
7802;BME280;3945;48.952;9.506;2022-10-17T08:20:57;98691.78;;;16.23;99.48
7802;BME280;3945;48.952;9.506;2022-10-17T08:23:25;98698.31;;;16.32;98.98
7802;BME280;3945;48.952;9.506;2022-10-17T08:25:52;98690.59;;;16.46;98.56
7802;BME280;3945;48.952;9.506;2022-10-17T08:28:18;98697.63;;;16.57;98.22
7802;BME280;3945;48.952;9.506;2022-10-17T08:30:44;98698.28;;;16.69;97.64
7802;BME280;3945;48.952;9.506;2022-10-17T08:33:11;98694.28;;;16.77;97.10
7802;BME280;3945;48.952;9.506;2022-10-17T08:35:37;98690.56;;;16.88;95.65
7802;BME280;3945;48.952;9.506;2022-10-17T08:38:03;98693.06;;;17.00;95.28
7802;BME280;3945;48.952;9.506;2022-10-17T08:40:32;98697.38;;;17.16;94.24
7802;BME280;3945;48.952;9.506;2022-10-17T08:43:03;98703.63;;;17.32;94.23
7802;BME280;3945;48.952;9.506;2022-10-17T08:45:35;98700.97;;;17.47;94.48
7802;BME280;3945;48.952;9.506;2022-10-17T08:48:03;98705.28;;;17.58;93.69
7802;BME280;3945;48.952;9.506;2022-10-17T08:50:31;98716.94;;;17.69;93.46
7802;BME280;3945;48.952;9.506;2022-10-17T08:53:01;98718.53;;;17.80;91.83
7802;BME280;3945;48.952;9.506;2022-10-17T08:55:28;98719.38;;;17.85;89.26
7802;BME280;3945;48.952;9.506;2022-10-17T08:57:58;98718.56;;;17.95;88.13
7802;BME280;3945;48.952;9.506;2022-10-17T09:00:25;98720.72;;;18.03;89.18
7802;BME280;3945;48.952;9.506;2022-10-17T09:02:56;98723.16;;;18.20;89.04
7802;BME280;3945;48.952;9.506;2022-10-17T09:05:30;98719.09;;;18.32;88.26
7802;BME280;3945;48.952;9.506;2022-10-17T09:08:02;98729.06;;;18.47;87.13
7802;BME280;3945;48.952;9.506;2022-10-17T09:10:34;98733.09;;;18.70;86.68
7802;BME280;3945;48.952;9.506;2022-10-17T09:13:09;98719.81;;;18.89;85.31
7802;BME280;3945;48.952;9.506;2022-10-17T09:15:46;98719.97;;;19.18;83.81
7802;BME280;3945;48.952;9.506;2022-10-17T09:18:15;98709.59;;;19.45;83.74
7802;BME280;3945;48.952;9.506;2022-10-17T09:20:43;98718.91;;;19.68;83.07
7802;BME280;3945;48.952;9.506;2022-10-17T09:23:14;98715.94;;;20.03;80.97
7802;BME280;3945;48.952;9.506;2022-10-17T09:25:41;98721.03;;;20.44;78.90
7802;BME280;3945;48.952;9.506;2022-10-17T09:28:11;98717.97;;;20.79;78.24
7802;BME280;3945;48.952;9.506;2022-10-17T09:30:39;98715.09;;;21.18;76.98
7802;BME280;3945;48.952;9.506;2022-10-17T09:33:08;98717.63;;;21.52;74.34
7802;BME280;3945;48.952;9.506;2022-10-17T09:35:35;98726.84;;;21.70;72.98
7802;BME280;3945;48.952;9.506;2022-10-17T09:38:02;98720.69;;;21.83;72.96
7802;BME280;3945;48.952;9.506;2022-10-17T09:40:30;98731.75;;;21.87;70.58
7802;BME280;3945;48.952;9.506;2022-10-17T09:42:57;98730.94;;;21.86;71.91
7802;BME280;3945;48.952;9.506;2022-10-17T09:45:27;98727.56;;;21.94;71.32
7802;BME280;3945;48.952;9.506;2022-10-17T09:47:59;98720.69;;;22.02;72.65
7802;BME280;3945;48.952;9.506;2022-10-17T09:50:30;98724.13;;;22.07;72.90
7802;BME280;3945;48.952;9.506;2022-10-17T09:52:59;98722.22;;;22.08;72.31
7802;BME280;3945;48.952;9.506;2022-10-17T09:55:30;98717.81;;;22.12;72.03
7802;BME280;3945;48.952;9.506;2022-10-17T09:57:59;98717.94;;;22.20;71.30
7802;BME280;3945;48.952;9.506;2022-10-17T10:00:28;98722.78;;;22.24;70.57
7802;BME280;3945;48.952;9.506;2022-10-17T10:03:08;98718.06;;;22.29;70.66
7802;BME280;3945;48.952;9.506;2022-10-17T10:05:34;98718.72;;;22.40;70.10
7802;BME280;3945;48.952;9.506;2022-10-17T10:08:01;98707.97;;;22.48;71.22
7802;BME280;3945;48.952;9.506;2022-10-17T10:10:28;98714.81;;;22.59;70.74
7802;BME280;3945;48.952;9.506;2022-10-17T10:13:05;98709.69;;;22.72;69.86
7802;BME280;3945;48.952;9.506;2022-10-17T10:15:34;98712.44;;;22.85;69.62
7802;BME280;3945;48.952;9.506;2022-10-17T10:18:02;98710.34;;;22.96;69.21
7802;BME280;3945;48.952;9.506;2022-10-17T10:20:30;98705.31;;;23.03;68.20
7802;BME280;3945;48.952;9.506;2022-10-17T10:23:06;98709.25;;;23.11;69.27
7802;BME280;3945;48.952;9.506;2022-10-17T10:25:33;98708.22;;;23.20;69.75
7802;BME280;3945;48.952;9.506;2022-10-17T10:28:00;98702.06;;;23.28;64.08
7802;BME280;3945;48.952;9.506;2022-10-17T10:30:27;98705.78;;;23.32;62.51
7802;BME280;3945;48.952;9.506;2022-10-17T10:32:56;98717.34;;;23.38;63.72
7802;BME280;3945;48.952;9.506;2022-10-17T10:35:24;98708.28;;;23.43;62.46
7802;BME280;3945;48.952;9.506;2022-10-17T10:37:55;98713.41;;;23.44;62.38
7802;BME280;3945;48.952;9.506;2022-10-17T10:40:24;98709.88;;;23.44;63.91
7802;BME280;3945;48.952;9.506;2022-10-17T10:42:52;98714.81;;;23.42;64.94
7802;BME280;3945;48.952;9.506;2022-10-17T10:45:21;98716.94;;;23.45;60.53
7802;BME280;3945;48.952;9.506;2022-10-17T10:47:49;98719.94;;;23.43;60.95
7802;BME280;3945;48.952;9.506;2022-10-17T10:50:20;98711.00;;;23.43;60.12
7802;BME280;3945;48.952;9.506;2022-10-17T10:52:49;98720.88;;;23.52;61.75
7802;BME280;3945;48.952;9.506;2022-10-17T10:55:21;98727.19;;;23.61;60.70
7802;BME280;3945;48.952;9.506;2022-10-17T10:57:49;98726.94;;;23.71;59.86
7802;BME280;3945;48.952;9.506;2022-10-17T11:00:18;98720.78;;;23.80;58.10
7802;BME280;3945;48.952;9.506;2022-10-17T11:02:48;98726.59;;;23.87;58.79
7802;BME280;3945;48.952;9.506;2022-10-17T11:05:21;98716.00;;;23.99;58.67
7802;BME280;3945;48.952;9.506;2022-10-17T11:07:50;98723.91;;;24.09;60.03
7802;BME280;3945;48.952;9.506;2022-10-17T11:10:21;98718.97;;;24.11;58.68
7802;BME280;3945;48.952;9.506;2022-10-17T11:12:49;98716.41;;;24.14;58.69
7802;BME280;3945;48.952;9.506;2022-10-17T11:15:19;98712.78;;;24.19;59.61
7802;BME280;3945;48.952;9.506;2022-10-17T11:17:49;98716.06;;;24.30;58.60
7802;BME280;3945;48.952;9.506;2022-10-17T11:20:19;98717.22;;;24.37;60.49
7802;BME280;3945;48.952;9.506;2022-10-17T11:22:51;98716.34;;;24.50;58.72
7802;BME280;3945;48.952;9.506;2022-10-17T11:25:32;98716.06;;;24.61;59.63
7802;BME280;3945;48.952;9.506;2022-10-17T11:27:59;98717.41;;;24.72;58.85
7802;BME280;3945;48.952;9.506;2022-10-17T11:30:26;98708.34;;;24.85;59.27
7802;BME280;3945;48.952;9.506;2022-10-17T11:32:54;98709.06;;;24.99;60.42
7802;BME280;3945;48.952;9.506;2022-10-17T11:35:22;98709.75;;;25.13;60.35
7802;BME280;3945;48.952;9.506;2022-10-17T11:37:51;98713.47;;;25.26;57.72
7802;BME280;3945;48.952;9.506;2022-10-17T11:40:21;98705.63;;;25.42;56.98
7802;BME280;3945;48.952;9.506;2022-10-17T11:42:51;98704.03;;;25.49;57.28
7802;BME280;3945;48.952;9.506;2022-10-17T11:45:19;98710.50;;;25.62;54.38
7802;BME280;3945;48.952;9.506;2022-10-17T11:47:48;98704.06;;;25.66;54.60
7802;BME280;3945;48.952;9.506;2022-10-17T11:50:17;98699.75;;;25.74;55.59
7802;BME280;3945;48.952;9.506;2022-10-17T11:52:45;98697.00;;;25.83;55.15
7802;BME280;3945;48.952;9.506;2022-10-17T11:55:16;98692.69;;;25.90;55.03
7802;BME280;3945;48.952;9.506;2022-10-17T11:57:48;98689.63;;;26.00;54.47
7802;BME280;3945;48.952;9.506;2022-10-17T12:00:19;98687.03;;;26.13;54.21
7802;BME280;3945;48.952;9.506;2022-10-17T12:02:49;98694.25;;;26.17;53.71
7802;BME280;3945;48.952;9.506;2022-10-17T12:05:18;98693.28;;;26.30;52.49
7802;BME280;3945;48.952;9.506;2022-10-17T12:07:48;98693.75;;;26.41;52.69
7802;BME280;3945;48.952;9.506;2022-10-17T12:10:21;98686.66;;;26.49;55.83
7802;BME280;3945;48.952;9.506;2022-10-17T12:12:48;98686.44;;;26.62;53.18
7802;BME280;3945;48.952;9.506;2022-10-17T12:15:27;98691.88;;;26.71;51.04
7802;BME280;3945;48.952;9.506;2022-10-17T12:17:54;98685.22;;;26.80;50.04
7802;BME280;3945;48.952;9.506;2022-10-17T12:20:29;98680.56;;;26.81;51.91
7802;BME280;3945;48.952;9.506;2022-10-17T12:22:58;98676.19;;;26.89;52.97
7802;BME280;3945;48.952;9.506;2022-10-17T12:25:27;98677.00;;;26.98;52.70
7802;BME280;3945;48.952;9.506;2022-10-17T12:28:09;98683.53;;;27.05;50.50
7802;BME280;3945;48.952;9.506;2022-10-17T12:30:37;98682.53;;;27.10;49.03
7802;BME280;3945;48.952;9.506;2022-10-17T12:33:15;98683.94;;;27.16;50.46
7802;BME280;3945;48.952;9.506;2022-10-17T12:35:46;98685.38;;;27.22;51.42
7802;BME280;3945;48.952;9.506;2022-10-17T12:38:23;98677.78;;;27.28;51.26
7802;BME280;3945;48.952;9.506;2022-10-17T12:40:51;98677.09;;;27.31;51.04
7802;BME280;3945;48.952;9.506;2022-10-17T12:46:03;98679.34;;;27.37;49.19
7802;BME280;3945;48.952;9.506;2022-10-17T12:51:20;98679.44;;;27.41;48.89
7802;BME280;3945;48.952;9.506;2022-10-17T12:53:51;98683.31;;;27.40;48.34
7802;BME280;3945;48.952;9.506;2022-10-17T12:56:30;98686.53;;;27.42;49.72
7802;BME280;3945;48.952;9.506;2022-10-17T12:58:59;98686.53;;;27.42;49.98
7802;BME280;3945;48.952;9.506;2022-10-17T13:01:26;98681.53;;;27.44;51.36
7802;BME280;3945;48.952;9.506;2022-10-17T13:03:53;98685.84;;;27.45;51.23
7802;BME280;3945;48.952;9.506;2022-10-17T13:06:21;98680.72;;;27.43;50.47
7802;BME280;3945;48.952;9.506;2022-10-17T13:08:49;98687.44;;;27.46;48.81
7802;BME280;3945;48.952;9.506;2022-10-17T13:11:20;98689.06;;;27.47;49.43
7802;BME280;3945;48.952;9.506;2022-10-17T13:13:49;98683.59;;;27.47;48.45
7802;BME280;3945;48.952;9.506;2022-10-17T13:16:28;98685.72;;;27.41;47.95
7802;BME280;3945;48.952;9.506;2022-10-17T13:18:55;98677.84;;;27.40;50.36
7802;BME280;3945;48.952;9.506;2022-10-17T13:21:22;98690.53;;;27.44;50.70
7802;BME280;3945;48.952;9.506;2022-10-17T13:23:48;98693.72;;;27.46;51.22
7802;BME280;3945;48.952;9.506;2022-10-17T13:26:17;98697.47;;;27.42;50.82
7802;BME280;3945;48.952;9.506;2022-10-17T13:28:45;98700.84;;;27.39;51.24
7802;BME280;3945;48.952;9.506;2022-10-17T13:31:27;98705.72;;;27.33;51.81
7802;BME280;3945;48.952;9.506;2022-10-17T13:33:55;98714.16;;;27.19;50.66
7802;BME280;3945;48.952;9.506;2022-10-17T13:36:22;98719.19;;;27.09;50.93
7802;BME280;3945;48.952;9.506;2022-10-17T13:38:48;98717.69;;;26.91;50.36